createdAt,value
2023-05-13T00:00:35.772Z,433.00
2023-05-13T00:01:35.782Z,433.00
2023-05-13T00:02:35.899Z,435.00
2023-05-13T00:03:35.993Z,436.00
2023-05-13T00:04:35.859Z,437.00
2023-05-13T00:05:35.864Z,436.00
2023-05-13T00:06:35.923Z,438.00
2023-05-13T00:07:35.944Z,442.00
2023-05-13T00:08:35.888Z,447.00
2023-05-13T00:09:35.923Z,449.00
2023-05-13T00:10:35.946Z,449.00
2023-05-13T00:11:35.990Z,446.00
2023-05-13T00:12:36.001Z,445.00
2023-05-13T00:13:35.989Z,442.00
2023-05-13T00:14:36.029Z,441.00
2023-05-13T00:15:36.016Z,440.00
2023-05-13T00:16:36.098Z,437.00
2023-05-13T00:17:36.150Z,433.00
2023-05-13T00:18:36.110Z,434.00
2023-05-13T00:19:36.087Z,435.00
2023-05-13T00:20:36.103Z,434.00
2023-05-13T00:21:36.125Z,433.00
2023-05-13T00:22:36.131Z,435.00
2023-05-13T00:23:36.152Z,435.00
2023-05-13T00:24:36.145Z,433.00
2023-05-13T00:25:36.195Z,431.00
2023-05-13T00:26:36.194Z,430.00
2023-05-13T00:27:36.193Z,429.00
2023-05-13T00:28:36.206Z,429.00
2023-05-13T00:29:36.261Z,428.00
2023-05-13T00:30:36.267Z,428.00
2023-05-13T00:31:36.325Z,427.00
2023-05-13T00:32:36.332Z,427.00
2023-05-13T00:33:36.289Z,429.00
2023-05-13T00:34:36.309Z,427.00
2023-05-13T00:35:36.299Z,426.00
2023-05-13T00:36:36.316Z,427.00
2023-05-13T00:37:36.342Z,429.00
2023-05-13T00:38:36.349Z,429.00
2023-05-13T00:39:36.339Z,429.00
2023-05-13T00:40:36.370Z,429.00
2023-05-13T00:41:36.396Z,427.00
2023-05-13T00:42:36.383Z,428.00
2023-05-13T00:43:36.405Z,428.00
2023-05-13T00:44:36.425Z,427.00
2023-05-13T00:45:36.508Z,427.00
2023-05-13T00:46:36.475Z,429.00
2023-05-13T00:47:36.480Z,430.00
2023-05-13T00:48:36.502Z,430.00
2023-05-13T00:49:36.507Z,435.00
2023-05-13T00:50:36.536Z,436.00
2023-05-13T00:51:36.546Z,437.00
2023-05-13T00:52:36.557Z,438.00
2023-05-13T00:53:36.552Z,435.00
2023-05-13T00:54:36.570Z,434.00
2023-05-13T00:55:36.596Z,432.00
2023-05-13T00:56:36.588Z,432.00
2023-05-13T00:57:36.609Z,432.00
2023-05-13T00:58:36.610Z,433.00
2023-05-13T00:59:36.627Z,432.00
2023-05-13T01:00:36.652Z,430.00
2023-05-13T01:01:36.812Z,430.00
2023-05-13T01:02:36.816Z,429.00
2023-05-13T01:03:36.749Z,429.00
2023-05-13T01:04:36.731Z,434.00
2023-05-13T01:05:36.729Z,437.00
2023-05-13T01:06:36.771Z,436.00
2023-05-13T01:07:36.764Z,435.00
2023-05-13T01:08:36.820Z,435.00
2023-05-13T01:09:36.786Z,434.00
2023-05-13T01:10:36.770Z,432.00
2023-05-13T01:11:36.767Z,433.00
2023-05-13T01:12:36.806Z,433.00
2023-05-13T01:13:36.843Z,433.00
2023-05-13T01:14:36.817Z,431.00
2023-05-13T01:15:36.835Z,431.00
2023-05-13T01:16:36.914Z,430.00
2023-05-13T01:17:36.915Z,429.00
2023-05-13T01:18:36.921Z,429.00
2023-05-13T01:19:36.887Z,428.00
2023-05-13T01:20:36.861Z,426.00
2023-05-13T01:21:36.877Z,424.00
2023-05-13T01:22:36.916Z,424.00
2023-05-13T01:23:36.890Z,425.00
2023-05-13T01:24:36.921Z,425.00
2023-05-13T01:25:36.937Z,425.00
2023-05-13T01:26:36.902Z,424.00
2023-05-13T01:27:36.913Z,424.00
2023-05-13T01:28:36.932Z,424.00
2023-05-13T01:29:36.932Z,425.00
2023-05-13T01:30:36.936Z,425.00
2023-05-13T01:31:36.987Z,426.00
2023-05-13T01:32:36.981Z,427.00
2023-05-13T01:33:36.971Z,426.00
2023-05-13T01:34:36.972Z,428.00
2023-05-13T01:35:36.992Z,430.00
2023-05-13T01:36:36.984Z,433.00
2023-05-13T01:37:37.001Z,435.00
2023-05-13T01:38:36.997Z,434.00
2023-05-13T01:39:37.001Z,433.00
2023-05-13T01:40:37.294Z,434.00
2023-05-13T01:41:37.031Z,435.00
2023-05-13T01:42:37.041Z,434.00
2023-05-13T01:43:37.063Z,435.00
2023-05-13T01:44:37.084Z,433.00
2023-05-13T01:45:37.090Z,433.00
2023-05-13T01:46:37.153Z,433.00
2023-05-13T01:47:37.132Z,432.00
2023-05-13T01:48:37.153Z,432.00
2023-05-13T01:49:37.173Z,430.00
2023-05-13T01:50:37.189Z,430.00
2023-05-13T01:51:37.207Z,427.00
2023-05-13T01:52:37.241Z,428.00
2023-05-13T01:53:37.252Z,428.00
2023-05-13T01:54:37.264Z,429.00
2023-05-13T01:55:37.274Z,430.00
2023-05-13T01:56:37.298Z,432.00
2023-05-13T01:57:37.309Z,434.00
2023-05-13T01:58:37.303Z,434.00
2023-05-13T01:59:37.331Z,434.00
2023-05-13T02:00:37.342Z,434.00
2023-05-13T02:01:37.384Z,433.00
2023-05-13T02:02:37.423Z,432.00
2023-05-13T02:03:37.547Z,432.00
2023-05-13T02:04:37.383Z,434.00
2023-05-13T02:05:37.400Z,433.00
2023-05-13T02:06:37.402Z,433.00
2023-05-13T02:07:37.426Z,432.00
2023-05-13T02:08:37.424Z,431.00
2023-05-13T02:09:37.425Z,431.00
2023-05-13T02:10:37.446Z,433.00
2023-05-13T02:11:37.461Z,432.00
2023-05-13T02:12:37.455Z,433.00
2023-05-13T02:13:37.489Z,432.00
2023-05-13T02:14:37.486Z,430.00
2023-05-13T02:15:37.491Z,429.00
2023-05-13T02:16:37.589Z,429.00
2023-05-13T02:17:37.564Z,429.00
2023-05-13T02:18:37.535Z,431.00
2023-05-13T02:19:37.618Z,432.00
2023-05-13T02:20:37.545Z,435.00
2023-05-13T02:21:37.549Z,438.00
2023-05-13T02:22:37.561Z,440.00
2023-05-13T02:23:37.584Z,443.00
2023-05-13T02:24:37.607Z,444.00
2023-05-13T02:25:37.596Z,443.00
2023-05-13T02:26:37.619Z,444.00
2023-05-13T02:27:37.632Z,445.00
2023-05-13T02:28:37.657Z,446.00
2023-05-13T02:29:38.334Z,444.00
2023-05-13T02:30:37.686Z,444.00
2023-05-13T02:31:37.723Z,442.00
2023-05-13T02:32:37.737Z,441.00
2023-05-13T02:33:37.707Z,439.00
2023-05-13T02:34:37.796Z,437.00
2023-05-13T02:35:37.739Z,438.00
2023-05-13T02:36:37.742Z,437.00
2023-05-13T02:37:37.745Z,438.00
2023-05-13T02:38:37.760Z,440.00
2023-05-13T02:39:37.761Z,440.00
2023-05-13T02:40:37.779Z,440.00
2023-05-13T02:41:37.795Z,440.00
2023-05-13T02:42:37.808Z,442.00
2023-05-13T02:43:37.833Z,443.00
2023-05-13T02:44:37.833Z,443.00
2023-05-13T02:45:37.875Z,443.00
2023-05-13T02:46:37.873Z,443.00
2023-05-13T02:47:37.906Z,443.00
2023-05-13T02:48:37.892Z,442.00
2023-05-13T02:49:37.909Z,443.00
2023-05-13T02:50:37.948Z,443.00
2023-05-13T02:51:37.940Z,440.00
2023-05-13T02:52:37.962Z,439.00
2023-05-13T02:53:37.960Z,441.00
2023-05-13T02:54:38.020Z,442.00
2023-05-13T02:55:37.975Z,442.00
2023-05-13T02:56:38.003Z,442.00
2023-05-13T02:57:38.036Z,441.00
2023-05-13T02:58:38.045Z,438.00
2023-05-13T02:59:38.051Z,437.00
2023-05-13T03:00:38.062Z,437.00
2023-05-13T03:01:38.141Z,437.00
2023-05-13T03:02:38.115Z,437.00
2023-05-13T03:03:38.192Z,440.00
2023-05-13T03:04:38.117Z,441.00
2023-05-13T03:05:38.131Z,444.00
2023-05-13T03:06:38.156Z,445.00
2023-05-13T03:07:38.212Z,447.00
2023-05-13T03:08:38.204Z,448.00
2023-05-13T03:09:38.236Z,447.00
2023-05-13T03:10:38.264Z,448.00
2023-05-13T03:11:38.308Z,451.00
2023-05-13T03:12:38.314Z,454.00
2023-05-13T03:13:38.380Z,454.00
2023-05-13T03:14:38.394Z,453.00
2023-05-13T03:15:38.423Z,455.00
2023-05-13T03:16:38.593Z,458.00
2023-05-13T03:17:38.459Z,457.00
2023-05-13T03:18:38.459Z,455.00
2023-05-13T03:19:38.455Z,453.00
2023-05-13T03:20:38.525Z,450.00
2023-05-13T03:21:38.529Z,447.00
2023-05-13T03:22:38.564Z,443.00
2023-05-13T03:23:38.627Z,443.00
2023-05-13T03:24:38.648Z,445.00
2023-05-13T03:25:38.692Z,448.00
2023-05-13T03:26:38.728Z,448.00
2023-05-13T03:27:38.767Z,451.00
2023-05-13T03:28:38.800Z,453.00
2023-05-13T03:29:38.839Z,453.00
2023-05-13T03:30:38.877Z,450.00
2023-05-13T03:31:38.923Z,448.00
2023-05-13T03:32:38.986Z,445.00
2023-05-13T03:33:38.977Z,442.00
2023-05-13T03:34:39.016Z,442.00
2023-05-13T03:35:39.050Z,443.00
2023-05-13T03:36:39.109Z,445.00
2023-05-13T03:37:39.130Z,447.00
2023-05-13T03:38:39.169Z,446.00
2023-05-13T03:39:39.205Z,443.00
2023-05-13T03:40:39.239Z,441.00
2023-05-13T03:41:39.263Z,441.00
2023-05-13T03:42:39.317Z,440.00
2023-05-13T03:43:39.322Z,437.00
2023-05-13T03:44:39.363Z,435.00
2023-05-13T03:45:39.411Z,436.00
2023-05-13T03:46:39.473Z,436.00
2023-05-13T03:47:39.551Z,438.00
2023-05-13T03:48:39.503Z,437.00
2023-05-13T03:49:39.548Z,436.00
2023-05-13T03:50:39.566Z,436.00
2023-05-13T03:51:39.624Z,433.00
2023-05-13T03:52:39.632Z,430.00
2023-05-13T03:53:39.657Z,427.00
2023-05-13T03:54:39.696Z,428.00
2023-05-13T03:55:39.721Z,428.00
2023-05-13T03:56:39.772Z,427.00
2023-05-13T03:57:39.790Z,428.00
2023-05-13T03:58:39.834Z,427.00
2023-05-13T03:59:39.847Z,427.00
2023-05-13T04:00:39.886Z,428.00
2023-05-13T04:01:39.996Z,429.00
2023-05-13T04:02:40.000Z,430.00
2023-05-13T04:03:39.980Z,432.00
2023-05-13T04:04:40.032Z,433.00
2023-05-13T04:05:40.097Z,432.00
2023-05-13T04:06:40.088Z,431.00
2023-05-13T04:07:40.137Z,433.00
2023-05-13T04:08:40.183Z,433.00
2023-05-13T04:09:40.193Z,434.00
2023-05-13T04:10:40.249Z,433.00
2023-05-13T04:11:40.299Z,431.00
2023-05-13T04:12:40.329Z,432.00
2023-05-13T04:13:40.350Z,433.00
2023-05-13T04:14:40.398Z,432.00
2023-05-13T04:15:40.445Z,433.00
2023-05-13T04:16:40.516Z,432.00
2023-05-13T04:17:40.525Z,433.00
2023-05-13T04:18:40.558Z,431.00
2023-05-13T04:19:40.555Z,430.00
2023-05-13T04:20:40.614Z,430.00
2023-05-13T04:21:40.635Z,431.00
2023-05-13T04:22:40.665Z,432.00
2023-05-13T04:23:40.696Z,433.00
2023-05-13T04:24:40.707Z,434.00
2023-05-13T04:25:40.725Z,434.00
2023-05-13T04:26:40.771Z,432.00
2023-05-13T04:27:40.809Z,430.00
2023-05-13T04:28:40.821Z,426.00
2023-05-13T04:29:40.850Z,425.00
2023-05-13T04:30:40.897Z,426.00
2023-05-13T04:31:40.966Z,428.00
2023-05-13T04:32:40.997Z,427.00
2023-05-13T04:33:40.959Z,426.00
2023-05-13T04:34:40.989Z,426.00
2023-05-13T04:35:41.011Z,426.00
2023-05-13T04:36:41.057Z,426.00
2023-05-13T04:37:41.068Z,426.00
2023-05-13T04:38:41.088Z,424.00
2023-05-13T04:39:41.098Z,425.00
2023-05-13T04:40:41.132Z,424.00
2023-05-13T04:41:41.142Z,424.00
2023-05-13T04:42:41.190Z,426.00
2023-05-13T04:43:41.189Z,427.00
2023-05-13T04:44:41.232Z,428.00
2023-05-13T04:45:41.236Z,426.00
2023-05-13T04:46:41.355Z,425.00
2023-05-13T04:47:41.297Z,424.00
2023-05-13T04:48:41.273Z,424.00
2023-05-13T04:49:41.289Z,425.00
2023-05-13T04:50:41.295Z,424.00
2023-05-13T04:51:41.311Z,424.00
2023-05-13T04:52:41.315Z,423.00
2023-05-13T04:53:41.338Z,424.00
2023-05-13T04:54:41.345Z,425.00
2023-05-13T04:55:41.363Z,426.00
2023-05-13T04:56:41.382Z,427.00
2023-05-13T04:57:41.389Z,426.00
2023-05-13T04:58:41.438Z,425.00
2023-05-13T04:59:41.420Z,428.00
2023-05-13T05:00:41.437Z,427.00
2023-05-13T05:01:41.530Z,425.00
2023-05-13T05:02:41.476Z,424.00
2023-05-13T05:03:41.551Z,424.00
2023-05-13T05:04:41.515Z,425.00
2023-05-13T05:05:41.548Z,425.00
2023-05-13T05:06:41.571Z,423.00
2023-05-13T05:07:41.583Z,421.00
2023-05-13T05:08:41.597Z,422.00
2023-05-13T05:09:41.621Z,422.00
2023-05-13T05:10:41.647Z,421.00
2023-05-13T05:11:41.652Z,421.00
2023-05-13T05:12:41.665Z,420.00
2023-05-13T05:13:41.696Z,422.00
2023-05-13T05:14:41.691Z,423.00
2023-05-13T05:15:41.730Z,426.00
2023-05-13T05:16:41.739Z,427.00
2023-05-13T05:17:41.885Z,427.00
2023-05-13T05:18:41.809Z,427.00
2023-05-13T05:19:41.771Z,428.00
2023-05-13T05:20:41.783Z,429.00
2023-05-13T05:21:41.786Z,428.00
2023-05-13T05:22:41.780Z,426.00
2023-05-13T05:23:41.790Z,427.00
2023-05-13T05:24:41.796Z,426.00
2023-05-13T05:25:41.826Z,428.00
2023-05-13T05:26:42.916Z,430.00
2023-05-13T05:27:41.813Z,429.00
2023-05-13T05:28:41.839Z,427.00
2023-05-13T05:29:41.864Z,428.00
2023-05-13T05:30:41.842Z,432.00
2023-05-13T05:31:41.961Z,433.00
2023-05-13T05:32:41.908Z,433.00
2023-05-13T05:33:41.879Z,432.00
2023-05-13T05:34:41.890Z,431.00
2023-05-13T05:35:41.911Z,429.00
2023-05-13T05:36:41.894Z,428.00
2023-05-13T05:37:41.881Z,427.00
2023-05-13T05:38:41.918Z,426.00
2023-05-13T05:39:41.939Z,426.00
2023-05-13T05:40:41.940Z,426.00
2023-05-13T05:41:41.969Z,426.00
2023-05-13T05:42:41.945Z,427.00
2023-05-13T05:43:41.984Z,428.00
2023-05-13T05:44:42.060Z,429.00
2023-05-13T05:45:42.054Z,430.00
2023-05-13T05:46:42.018Z,431.00
2023-05-13T05:47:42.081Z,429.00
2023-05-13T05:48:42.073Z,427.00
2023-05-13T05:49:42.057Z,425.00
2023-05-13T05:50:42.069Z,426.00
2023-05-13T05:51:42.080Z,426.00
2023-05-13T05:52:42.097Z,428.00
2023-05-13T05:53:42.121Z,428.00
2023-05-13T05:54:42.143Z,429.00
2023-05-13T05:55:42.114Z,431.00
2023-05-13T05:56:42.151Z,430.00
2023-05-13T05:57:42.156Z,431.00
2023-05-13T05:58:42.165Z,431.00
2023-05-13T05:59:42.161Z,430.00
2023-05-13T06:00:42.204Z,432.00
2023-05-13T06:01:42.248Z,432.00
2023-05-13T06:02:42.371Z,433.00
2023-05-13T06:03:42.357Z,433.00
2023-05-13T06:04:42.469Z,433.00
2023-05-13T06:05:42.277Z,431.00
2023-05-13T06:06:42.328Z,431.00
2023-05-13T06:07:42.314Z,430.00
2023-05-13T06:08:42.330Z,428.00
2023-05-13T06:09:42.342Z,427.00
2023-05-13T06:10:42.354Z,427.00
2023-05-13T06:11:42.385Z,426.00
2023-05-13T06:12:42.405Z,424.00
2023-05-13T06:13:42.426Z,423.00
2023-05-13T06:14:42.448Z,423.00
2023-05-13T06:15:42.488Z,423.00
2023-05-13T06:16:42.459Z,425.00
2023-05-13T06:17:42.515Z,427.00
2023-05-13T06:18:42.508Z,429.00
2023-05-13T06:19:42.507Z,432.00
2023-05-13T06:20:42.516Z,433.00
2023-05-13T06:21:42.515Z,435.00
2023-05-13T06:22:42.554Z,432.00
2023-05-13T06:23:42.557Z,429.00
2023-05-13T06:24:42.560Z,429.00
2023-05-13T06:25:42.579Z,427.00
2023-05-13T06:26:42.604Z,426.00
2023-05-13T06:27:42.610Z,427.00
2023-05-13T06:28:42.664Z,428.00
2023-05-13T06:29:42.643Z,428.00
2023-05-13T06:30:42.656Z,428.00
2023-05-13T06:31:42.702Z,428.00
2023-05-13T06:32:53.542Z,428.00
2023-05-13T06:33:43.682Z,428.00
2023-05-13T06:34:42.657Z,426.00
2023-05-13T06:35:42.652Z,423.00
2023-05-13T06:36:42.678Z,420.00
2023-05-13T06:37:42.637Z,421.00
2023-05-13T06:38:42.629Z,422.00
2023-05-13T06:39:42.649Z,421.00
2023-05-13T06:40:42.614Z,420.00
2023-05-13T06:41:42.620Z,420.00
2023-05-13T06:42:42.623Z,419.00
2023-05-13T06:43:42.598Z,421.00
2023-05-13T06:44:42.584Z,421.00
2023-05-13T06:45:42.592Z,424.00
2023-05-13T06:46:42.570Z,425.00
2023-05-13T06:47:42.634Z,425.00
2023-05-13T06:48:42.578Z,424.00
2023-05-13T06:49:42.549Z,423.00
2023-05-13T06:50:42.545Z,422.00
2023-05-13T06:51:42.554Z,419.00
2023-05-13T06:52:42.531Z,419.00
2023-05-13T06:53:42.533Z,419.00
2023-05-13T06:54:42.552Z,419.00
2023-05-13T06:55:42.536Z,419.00
2023-05-13T06:56:42.512Z,416.00
2023-05-13T06:57:43.609Z,416.00
2023-05-13T06:58:42.479Z,417.00
2023-05-13T06:59:42.538Z,417.00
2023-05-13T07:00:42.547Z,418.00
2023-05-13T07:01:42.571Z,418.00
2023-05-13T07:02:42.627Z,418.00
2023-05-13T07:03:42.625Z,417.00
2023-05-13T07:04:42.602Z,419.00
2023-05-13T07:05:42.614Z,419.00
2023-05-13T07:06:42.646Z,419.00
2023-05-13T07:07:42.638Z,419.00
2023-05-13T07:08:42.657Z,417.00
2023-05-13T07:09:42.676Z,415.00
2023-05-13T07:10:42.677Z,415.00
2023-05-13T07:11:42.688Z,416.00
2023-05-13T07:12:42.710Z,418.00
2023-05-13T07:13:42.716Z,418.00
2023-05-13T07:14:42.743Z,419.00
2023-05-13T07:15:42.753Z,420.00
2023-05-13T07:16:42.790Z,422.00
2023-05-13T07:17:42.935Z,423.00
2023-05-13T07:18:42.804Z,421.00
2023-05-13T07:19:42.804Z,421.00
2023-05-13T07:20:42.820Z,423.00
2023-05-13T07:21:42.802Z,421.00
2023-05-13T07:22:42.815Z,419.00
2023-05-13T07:23:44.631Z,419.00
2023-05-13T07:24:42.855Z,419.00
2023-05-13T07:25:42.836Z,418.00
2023-05-13T07:26:42.836Z,419.00
2023-05-13T07:27:42.853Z,418.00
2023-05-13T07:28:42.881Z,417.00
2023-05-13T07:29:42.901Z,418.00
2023-05-13T07:30:42.944Z,420.00
2023-05-13T07:31:42.926Z,421.00
2023-05-13T07:32:42.955Z,424.00
2023-05-13T07:33:42.995Z,424.00
2023-05-13T07:34:43.028Z,425.00
2023-05-13T07:35:43.048Z,423.00
2023-05-13T07:36:43.062Z,423.00
2023-05-13T07:37:43.064Z,422.00
2023-05-13T07:38:43.086Z,423.00
2023-05-13T07:39:43.091Z,423.00
2023-05-13T07:40:43.122Z,423.00
2023-05-13T07:41:43.120Z,422.00
2023-05-13T07:42:43.136Z,421.00
2023-05-13T07:43:43.165Z,420.00
2023-05-13T07:44:43.193Z,419.00
2023-05-13T07:45:43.177Z,419.00
2023-05-13T07:46:43.206Z,419.00
2023-05-13T07:47:44.585Z,418.00
2023-05-13T07:48:43.208Z,420.00
2023-05-13T07:49:43.216Z,417.00
2023-05-13T07:50:43.221Z,417.00
2023-05-13T07:51:43.298Z,416.00
2023-05-13T07:52:43.209Z,414.00
2023-05-13T07:53:43.321Z,412.00
2023-05-13T07:54:43.408Z,410.00
2023-05-13T07:55:43.436Z,409.00
2023-05-13T07:56:43.432Z,411.00
2023-05-13T07:57:43.463Z,413.00
2023-05-13T07:58:43.499Z,417.00
2023-05-13T07:59:44.764Z,418.00
2023-05-13T08:00:43.509Z,415.00
2023-05-13T08:01:43.519Z,414.00
2023-05-13T08:02:43.612Z,415.00
2023-05-13T08:03:43.676Z,418.00
2023-05-13T08:04:43.626Z,419.00
2023-05-13T08:05:43.607Z,418.00
2023-05-13T08:06:43.635Z,418.00
2023-05-13T08:07:43.658Z,418.00
2023-05-13T08:08:43.684Z,419.00
2023-05-13T08:09:43.704Z,420.00
2023-05-13T08:10:43.711Z,422.00
2023-05-13T08:11:43.742Z,421.00
2023-05-13T08:12:43.765Z,421.00
2023-05-13T08:13:43.795Z,417.00
2023-05-13T08:14:43.816Z,416.00
2023-05-13T08:15:43.821Z,418.00
2023-05-13T08:16:43.864Z,419.00
2023-05-13T08:17:43.920Z,423.00
2023-05-13T08:18:43.928Z,425.00
2023-05-13T08:19:43.914Z,425.00
2023-05-13T08:20:43.923Z,425.00
2023-05-13T08:21:43.922Z,424.00
2023-05-13T08:22:43.949Z,422.00
2023-05-13T08:23:45.989Z,420.00
2023-05-13T08:24:43.969Z,420.00
2023-05-13T08:25:44.012Z,417.00
2023-05-13T08:26:44.028Z,415.00
2023-05-13T08:27:44.001Z,415.00
2023-05-13T08:28:44.004Z,416.00
2023-05-13T08:29:44.018Z,413.00
2023-05-13T08:30:44.023Z,413.00
2023-05-13T08:31:44.073Z,414.00
2023-05-13T08:32:44.046Z,412.00
2023-05-13T08:33:44.040Z,412.00
2023-05-13T08:34:44.042Z,413.00
2023-05-13T08:35:44.850Z,413.00
2023-05-13T08:36:44.039Z,415.00
2023-05-13T08:37:44.049Z,416.00
2023-05-13T08:38:44.052Z,416.00
2023-05-13T08:39:44.063Z,416.00
2023-05-13T08:40:44.082Z,415.00
2023-05-13T08:41:44.075Z,416.00
2023-05-13T08:42:44.088Z,416.00
2023-05-13T08:43:44.113Z,415.00
2023-05-13T08:44:44.126Z,415.00
2023-05-13T08:45:44.132Z,414.00
2023-05-13T08:46:44.133Z,414.00
2023-05-13T08:47:44.215Z,414.00
2023-05-13T08:48:44.240Z,413.00
2023-05-13T08:49:44.350Z,412.00
2023-05-13T08:50:44.374Z,410.00
2023-05-13T08:51:44.436Z,410.00
2023-05-13T08:52:44.499Z,410.00
2023-05-13T08:53:44.564Z,411.00
2023-05-13T08:54:44.622Z,412.00
2023-05-13T08:55:44.660Z,415.00
2023-05-13T08:56:44.725Z,417.00
2023-05-13T08:57:44.772Z,416.00
2023-05-13T08:58:44.795Z,418.00
2023-05-13T08:59:44.831Z,419.00
2023-05-13T09:00:44.869Z,418.00
2023-05-13T09:01:44.982Z,420.00
2023-05-13T09:02:44.944Z,419.00
2023-05-13T09:03:44.969Z,418.00
2023-05-13T09:04:45.068Z,417.00
2023-05-13T09:05:45.057Z,418.00
2023-05-13T09:06:45.090Z,416.00
2023-05-13T09:07:45.113Z,418.00
2023-05-13T09:08:45.145Z,418.00
2023-05-13T09:09:45.162Z,418.00
2023-05-13T09:10:45.216Z,417.00
2023-05-13T09:11:45.244Z,417.00
2023-05-13T09:12:45.349Z,416.00
2023-05-13T09:13:45.353Z,417.00
2023-05-13T09:14:45.424Z,418.00
2023-05-13T09:15:45.497Z,418.00
2023-05-13T09:16:45.499Z,418.00
2023-05-13T09:17:45.665Z,417.00
2023-05-13T09:18:45.648Z,415.00
2023-05-13T09:19:45.717Z,416.00
2023-05-13T09:20:45.633Z,417.00
2023-05-13T09:21:45.657Z,417.00
2023-05-13T09:22:45.672Z,418.00
2023-05-13T09:23:45.717Z,416.00
2023-05-13T09:24:45.747Z,417.00
2023-05-13T09:25:45.800Z,417.00
2023-05-13T09:26:45.817Z,416.00
2023-05-13T09:27:45.842Z,415.00
2023-05-13T09:28:45.917Z,414.00
2023-05-13T09:29:45.932Z,412.00
2023-05-13T09:30:46.804Z,412.00
2023-05-13T09:31:46.107Z,411.00
2023-05-13T09:32:46.030Z,410.00
2023-05-13T09:33:46.005Z,409.00
2023-05-13T09:34:46.026Z,409.00
2023-05-13T09:35:46.037Z,409.00
2023-05-13T09:36:46.081Z,411.00
2023-05-13T09:37:46.082Z,409.00
2023-05-13T09:38:46.096Z,410.00
2023-05-13T09:39:46.114Z,413.00
2023-05-13T09:40:46.102Z,414.00
2023-05-13T09:41:46.115Z,413.00
2023-05-13T09:42:46.118Z,416.00
2023-05-13T09:43:46.109Z,418.00
2023-05-13T09:44:46.122Z,419.00
2023-05-13T09:45:46.115Z,420.00
2023-05-13T09:46:46.172Z,419.00
2023-05-13T09:47:46.128Z,416.00
2023-05-13T09:48:46.161Z,417.00
2023-05-13T09:49:46.255Z,420.00
2023-05-13T09:50:46.264Z,420.00
2023-05-13T09:51:46.314Z,420.00
2023-05-13T09:52:46.377Z,418.00
2023-05-13T09:53:46.398Z,417.00
2023-05-13T09:54:46.499Z,416.00
2023-05-13T09:55:46.525Z,420.00
2023-05-13T09:56:46.554Z,423.00
2023-05-13T09:57:46.630Z,419.00
2023-05-13T09:58:46.697Z,419.00
2023-05-13T09:59:46.752Z,418.00
2023-05-13T10:00:47.118Z,419.00
2023-05-13T10:01:46.997Z,420.00
2023-05-13T10:02:46.949Z,419.00
2023-05-13T10:03:47.044Z,417.00
2023-05-13T10:04:47.025Z,417.00
2023-05-13T10:05:47.052Z,416.00
2023-05-13T10:06:47.123Z,417.00
2023-05-13T10:07:47.174Z,419.00
2023-05-13T10:08:47.219Z,420.00
2023-05-13T10:09:47.252Z,420.00
2023-05-13T10:10:47.326Z,420.00
2023-05-13T10:11:47.364Z,420.00
2023-05-13T10:12:47.421Z,420.00
2023-05-13T10:13:47.462Z,421.00
2023-05-13T10:14:47.497Z,422.00
2023-05-13T10:15:47.535Z,423.00
2023-05-13T10:16:47.624Z,427.00
2023-05-13T10:17:47.609Z,428.00
2023-05-13T10:18:47.619Z,428.00
2023-05-13T10:19:47.592Z,431.00
2023-05-13T10:20:47.645Z,430.00
2023-05-13T10:21:47.613Z,427.00
2023-05-13T10:22:47.649Z,428.00
2023-05-13T10:23:47.644Z,427.00
2023-05-13T10:24:47.666Z,425.00
2023-05-13T10:25:47.689Z,427.00
2023-05-13T10:26:47.696Z,426.00
2023-05-13T10:27:47.687Z,427.00
2023-05-13T10:28:47.712Z,427.00
2023-05-13T10:29:47.702Z,427.00
2023-05-13T10:30:47.695Z,429.00
2023-05-13T10:31:47.784Z,428.00
2023-05-13T10:32:47.704Z,426.00
2023-05-13T10:33:47.726Z,429.00
2023-05-13T10:34:47.805Z,419.00
2023-05-13T10:35:47.837Z,419.00
2023-05-13T10:36:47.880Z,422.00
2023-05-13T10:37:47.917Z,421.00
2023-05-13T10:38:47.971Z,423.00
2023-05-13T10:39:48.051Z,424.00
2023-05-13T10:40:48.103Z,421.00
2023-05-13T10:41:48.101Z,423.00
2023-05-13T10:42:48.127Z,424.00
2023-05-13T10:43:48.177Z,424.00
2023-05-13T10:44:48.246Z,424.00
2023-05-13T10:45:48.336Z,425.00
2023-05-13T10:46:48.410Z,425.00
2023-05-13T10:47:48.483Z,423.00
2023-05-13T10:48:48.482Z,427.00
2023-05-13T10:49:48.535Z,423.00
2023-05-13T10:50:48.581Z,423.00
2023-05-13T10:51:48.646Z,425.00
2023-05-13T10:52:48.675Z,428.00
2023-05-13T10:53:48.693Z,432.00
2023-05-13T10:54:48.747Z,432.00
2023-05-13T10:55:48.771Z,433.00
2023-05-13T10:56:48.832Z,433.00
2023-05-13T10:57:48.854Z,433.00
2023-05-13T10:58:48.896Z,432.00
2023-05-13T10:59:48.933Z,436.00
2023-05-13T11:00:48.980Z,431.00
2023-05-13T11:01:49.095Z,430.00
2023-05-13T11:02:49.075Z,429.00
2023-05-13T11:03:49.132Z,429.00
2023-05-13T11:04:49.035Z,432.00
2023-05-13T11:05:49.079Z,430.00
2023-05-13T11:06:49.129Z,431.00
2023-05-13T11:07:49.171Z,431.00
2023-05-13T11:08:49.209Z,429.00
2023-05-13T11:09:49.288Z,430.00
2023-05-13T11:10:49.331Z,430.00
2023-05-13T11:11:49.387Z,431.00
2023-05-13T11:12:49.452Z,431.00
2023-05-13T11:13:49.528Z,432.00
2023-05-13T11:14:49.554Z,430.00
2023-05-13T11:15:49.673Z,433.00
2023-05-13T11:16:49.689Z,428.00
2023-05-13T11:17:49.710Z,426.00
2023-05-13T11:18:49.802Z,427.00
2023-05-13T11:19:49.831Z,427.00
2023-05-13T11:20:52.621Z,429.00
2023-05-13T11:21:49.878Z,430.00
2023-05-13T11:22:49.858Z,429.00
2023-05-13T11:23:49.852Z,431.00
2023-05-13T11:24:49.862Z,430.00
2023-05-13T11:25:49.837Z,427.00
2023-05-13T11:26:49.867Z,425.00
2023-05-13T11:27:49.819Z,427.00
2023-05-13T11:28:49.813Z,423.00
2023-05-13T11:29:49.830Z,427.00
2023-05-13T11:30:49.882Z,429.00
2023-05-13T11:31:49.851Z,430.00
2023-05-13T11:32:49.855Z,430.00
2023-05-13T11:33:49.795Z,430.00
2023-05-13T11:34:49.788Z,432.00
2023-05-13T11:35:49.796Z,433.00
2023-05-13T11:36:49.882Z,432.00
2023-05-13T11:37:49.771Z,431.00
2023-05-13T11:38:49.768Z,432.00
2023-05-13T11:39:49.742Z,429.00
2023-05-13T11:40:49.751Z,431.00
2023-05-13T11:41:49.732Z,433.00
2023-05-13T11:42:49.720Z,433.00
2023-05-13T11:43:49.717Z,428.00
2023-05-13T11:44:49.721Z,437.00
2023-05-13T11:45:49.762Z,436.00
2023-05-13T11:46:49.716Z,435.00
2023-05-13T11:47:49.755Z,434.00
2023-05-13T11:48:49.682Z,437.00
2023-05-13T11:49:49.672Z,436.00
2023-05-13T11:50:49.715Z,432.00
2023-05-13T11:51:49.700Z,430.00
2023-05-13T11:52:49.651Z,435.00
2023-05-13T11:53:49.688Z,436.00
2023-05-13T11:54:49.680Z,439.00
2023-05-13T11:55:49.692Z,438.00
2023-05-13T11:56:49.627Z,440.00
2023-05-13T11:57:49.677Z,440.00
2023-05-13T11:58:49.631Z,438.00
2023-05-13T11:59:49.610Z,439.00
2023-05-13T12:00:49.612Z,438.00
2023-05-13T12:01:49.650Z,438.00
2023-05-13T12:02:49.756Z,434.00
2023-05-13T12:03:49.580Z,441.00
2023-05-13T12:04:49.615Z,442.00
2023-05-13T12:05:49.611Z,444.00
2023-05-13T12:06:49.576Z,444.00
2023-05-13T12:07:49.571Z,442.00
2023-05-13T12:08:49.564Z,440.00
2023-05-13T12:09:49.561Z,434.00
2023-05-13T12:10:49.552Z,442.00
2023-05-13T12:11:49.551Z,444.00
2023-05-13T12:12:49.595Z,442.00
2023-05-13T12:13:49.649Z,441.00
2023-05-13T12:14:49.688Z,442.00
2023-05-13T12:15:49.816Z,438.00
2023-05-13T12:16:49.809Z,426.00
2023-05-13T12:17:49.966Z,426.00
2023-05-13T12:18:49.968Z,433.00
2023-05-13T12:19:49.969Z,435.00
2023-05-13T12:20:50.036Z,435.00
2023-05-13T12:21:50.053Z,439.00
2023-05-13T12:22:50.124Z,431.00
2023-05-13T12:23:50.249Z,434.00
2023-05-13T12:24:50.235Z,434.00
2023-05-13T12:25:50.287Z,431.00
2023-05-13T12:26:50.308Z,431.00
2023-05-13T12:27:50.329Z,430.00
2023-05-13T12:28:50.379Z,431.00